sensor_id;sensor_type;location;lat;lon;timestamp;temperature;humidity
18281;DHT22;9266;51.132;17.062;2023-07-13T00:00:49;20.90;1.00
18281;DHT22;9266;51.132;17.062;2023-07-13T00:03:17;20.90;99.90
18281;DHT22;9266;51.132;17.062;2023-07-13T00:05:44;20.90;1.00
18281;DHT22;9266;51.132;17.062;2023-07-13T00:08:11;20.80;99.90
18281;DHT22;9266;51.132;17.062;2023-07-13T00:10:41;20.80;99.90
18281;DHT22;9266;51.132;17.062;2023-07-13T00:13:10;20.70;99.90
18281;DHT22;9266;51.132;17.062;2023-07-13T00:15:37;20.60;1.00
18281;DHT22;9266;51.132;17.062;2023-07-13T00:18:04;20.60;1.00
18281;DHT22;9266;51.132;17.062;2023-07-13T00:20:31;20.50;99.90
18281;DHT22;9266;51.132;17.062;2023-07-13T00:22:59;20.50;1.00
18281;DHT22;9266;51.132;17.062;2023-07-13T00:25:26;20.50;99.90
18281;DHT22;9266;51.132;17.062;2023-07-13T00:27:54;20.50;1.00
18281;DHT22;9266;51.132;17.062;2023-07-13T00:30:22;20.40;1.00
18281;DHT22;9266;51.132;17.062;2023-07-13T00:32:50;20.40;1.00
18281;DHT22;9266;51.132;17.062;2023-07-13T00:35:17;20.40;1.00
18281;DHT22;9266;51.132;17.062;2023-07-13T00:37:44;20.30;1.00
18281;DHT22;9266;51.132;17.062;2023-07-13T00:40:12;20.30;3.70
18281;DHT22;9266;51.132;17.062;2023-07-13T00:42:40;20.40;1.00
18281;DHT22;9266;51.132;17.062;2023-07-13T00:48:19;20.30;99.90
18281;DHT22;9266;51.132;17.062;2023-07-13T00:50:50;20.20;99.90
18281;DHT22;9266;51.132;17.062;2023-07-13T00:53:19;20.20;1.00
18281;DHT22;9266;51.132;17.062;2023-07-13T00:55:47;20.10;99.90
18281;DHT22;9266;51.132;17.062;2023-07-13T00:58:15;20.20;1.00
18281;DHT22;9266;51.132;17.062;2023-07-13T01:00:43;20.20;99.90
18281;DHT22;9266;51.132;17.062;2023-07-13T01:03:11;20.10;92.40
18281;DHT22;9266;51.132;17.062;2023-07-13T01:05:39;20.10;99.90
18281;DHT22;9266;51.132;17.062;2023-07-13T01:08:06;20.20;1.00
18281;DHT22;9266;51.132;17.062;2023-07-13T01:10:34;20.20;99.90
18281;DHT22;9266;51.132;17.062;2023-07-13T01:13:04;20.20;1.00
18281;DHT22;9266;51.132;17.062;2023-07-13T01:15:37;20.20;99.90
18281;DHT22;9266;51.132;17.062;2023-07-13T01:18:05;20.70;1.00
18281;DHT22;9266;51.132;17.062;2023-07-13T01:20:34;20.00;1.00
18281;DHT22;9266;51.132;17.062;2023-07-13T01:23:05;20.00;1.00
18281;DHT22;9266;51.132;17.062;2023-07-13T01:25:34;20.00;1.00
18281;DHT22;9266;51.132;17.062;2023-07-13T01:28:01;19.90;1.00
18281;DHT22;9266;51.132;17.062;2023-07-13T01:30:28;19.80;99.90
18281;DHT22;9266;51.132;17.062;2023-07-13T01:32:55;19.70;1.00
18281;DHT22;9266;51.132;17.062;2023-07-13T01:35:22;19.80;99.90
18281;DHT22;9266;51.132;17.062;2023-07-13T01:37:51;19.80;99.90
18281;DHT22;9266;51.132;17.062;2023-07-13T01:40:20;19.80;1.00
18281;DHT22;9266;51.132;17.062;2023-07-13T01:42:46;19.80;1.00
18281;DHT22;9266;51.132;17.062;2023-07-13T01:45:13;19.80;1.00
18281;DHT22;9266;51.132;17.062;2023-07-13T01:47:40;19.70;1.00
18281;DHT22;9266;51.132;17.062;2023-07-13T01:50:08;19.80;1.00
18281;DHT22;9266;51.132;17.062;2023-07-13T01:52:35;19.70;1.00
18281;DHT22;9266;51.132;17.062;2023-07-13T01:55:03;19.70;1.00
18281;DHT22;9266;51.132;17.062;2023-07-13T01:57:31;19.70;1.00
18281;DHT22;9266;51.132;17.062;2023-07-13T01:59:58;19.60;1.00
18281;DHT22;9266;51.132;17.062;2023-07-13T02:02:26;19.50;1.00
18281;DHT22;9266;51.132;17.062;2023-07-13T02:04:52;19.40;46.00
18281;DHT22;9266;51.132;17.062;2023-07-13T02:07:19;19.20;99.90
18281;DHT22;9266;51.132;17.062;2023-07-13T02:09:46;19.10;99.90
18281;DHT22;9266;51.132;17.062;2023-07-13T02:12:13;19.00;99.90
18281;DHT22;9266;51.132;17.062;2023-07-13T02:14:42;18.90;99.90
18281;DHT22;9266;51.132;17.062;2023-07-13T02:17:10;18.90;99.90
18281;DHT22;9266;51.132;17.062;2023-07-13T02:19:37;18.90;99.90
18281;DHT22;9266;51.132;17.062;2023-07-13T02:22:04;18.80;99.90
18281;DHT22;9266;51.132;17.062;2023-07-13T02:24:31;18.80;99.90
18281;DHT22;9266;51.132;17.062;2023-07-13T02:26:58;18.80;99.90
18281;DHT22;9266;51.132;17.062;2023-07-13T02:29:25;18.80;99.90
18281;DHT22;9266;51.132;17.062;2023-07-13T02:31:53;18.80;99.90
18281;DHT22;9266;51.132;17.062;2023-07-13T02:34:20;18.70;99.90
18281;DHT22;9266;51.132;17.062;2023-07-13T02:36:47;18.70;99.90
18281;DHT22;9266;51.132;17.062;2023-07-13T02:39:14;18.60;99.90
18281;DHT22;9266;51.132;17.062;2023-07-13T02:41:42;18.70;99.90
18281;DHT22;9266;51.132;17.062;2023-07-13T02:44:09;18.70;99.90
18281;DHT22;9266;51.132;17.062;2023-07-13T02:46:36;18.60;99.90
18281;DHT22;9266;51.132;17.062;2023-07-13T02:49:05;18.60;99.90
18281;DHT22;9266;51.132;17.062;2023-07-13T02:51:32;18.60;99.90
18281;DHT22;9266;51.132;17.062;2023-07-13T02:54:00;18.60;99.90
18281;DHT22;9266;51.132;17.062;2023-07-13T02:56:28;18.50;99.90
18281;DHT22;9266;51.132;17.062;2023-07-13T02:58:56;18.50;99.90
18281;DHT22;9266;51.132;17.062;2023-07-13T03:01:23;18.50;99.90
18281;DHT22;9266;51.132;17.062;2023-07-13T03:03:52;18.50;99.90
18281;DHT22;9266;51.132;17.062;2023-07-13T03:06:20;18.50;99.90
18281;DHT22;9266;51.132;17.062;2023-07-13T03:08:48;18.40;99.90
18281;DHT22;9266;51.132;17.062;2023-07-13T03:11:18;18.50;99.90
18281;DHT22;9266;51.132;17.062;2023-07-13T03:13:45;18.50;99.90
18281;DHT22;9266;51.132;17.062;2023-07-13T03:16:13;18.60;99.90
18281;DHT22;9266;51.132;17.062;2023-07-13T03:18:41;18.70;99.90
18281;DHT22;9266;51.132;17.062;2023-07-13T03:21:08;18.90;99.90
18281;DHT22;9266;51.132;17.062;2023-07-13T03:23:37;19.20;99.90
18281;DHT22;9266;51.132;17.062;2023-07-13T03:26:06;19.60;99.90
18281;DHT22;9266;51.132;17.062;2023-07-13T03:28:33;19.90;99.90
18281;DHT22;9266;51.132;17.062;2023-07-13T03:31:02;20.20;99.90
18281;DHT22;9266;51.132;17.062;2023-07-13T03:33:30;20.30;99.90
18281;DHT22;9266;51.132;17.062;2023-07-13T03:35:57;20.20;99.90
18281;DHT22;9266;51.132;17.062;2023-07-13T03:38:24;20.30;99.90
18281;DHT22;9266;51.132;17.062;2023-07-13T03:40:53;20.30;99.90
18281;DHT22;9266;51.132;17.062;2023-07-13T03:43:20;20.00;99.90
18281;DHT22;9266;51.132;17.062;2023-07-13T03:45:47;19.70;99.90
18281;DHT22;9266;51.132;17.062;2023-07-13T03:48:14;19.60;99.90
18281;DHT22;9266;51.132;17.062;2023-07-13T03:50:41;19.60;99.90
18281;DHT22;9266;51.132;17.062;2023-07-13T03:53:08;19.50;99.90
18281;DHT22;9266;51.132;17.062;2023-07-13T03:55:35;19.50;99.90
18281;DHT22;9266;51.132;17.062;2023-07-13T03:58:26;19.60;99.90
18281;DHT22;9266;51.132;17.062;2023-07-13T04:00:53;19.70;99.90
18281;DHT22;9266;51.132;17.062;2023-07-13T04:03:20;19.70;99.90
18281;DHT22;9266;51.132;17.062;2023-07-13T04:05:48;19.90;99.90
18281;DHT22;9266;51.132;17.062;2023-07-13T04:08:15;20.10;99.90
18281;DHT22;9266;51.132;17.062;2023-07-13T04:10:42;20.20;69.60
18281;DHT22;9266;51.132;17.062;2023-07-13T04:13:09;20.40;1.00
18281;DHT22;9266;51.132;17.062;2023-07-13T04:15:39;20.30;99.90
18281;DHT22;9266;51.132;17.062;2023-07-13T04:18:06;20.30;99.90
18281;DHT22;9266;51.132;17.062;2023-07-13T04:20:34;20.30;99.90
18281;DHT22;9266;51.132;17.062;2023-07-13T04:23:02;20.30;88.60
18281;DHT22;9266;51.132;17.062;2023-07-13T04:25:29;20.30;99.90
18281;DHT22;9266;51.132;17.062;2023-07-13T04:27:56;20.30;1.00
18281;DHT22;9266;51.132;17.062;2023-07-13T04:30:23;20.30;1.00
18281;DHT22;9266;51.132;17.062;2023-07-13T04:32:52;20.10;1.00
18281;DHT22;9266;51.132;17.062;2023-07-13T04:35:20;19.90;99.90
18281;DHT22;9266;51.132;17.062;2023-07-13T04:37:48;19.60;30.00
18281;DHT22;9266;51.132;17.062;2023-07-13T04:40:15;19.30;1.00
18281;DHT22;9266;51.132;17.062;2023-07-13T04:42:43;19.10;1.00
18281;DHT22;9266;51.132;17.062;2023-07-13T04:45:10;18.60;1.00
18281;DHT22;9266;51.132;17.062;2023-07-13T04:47:37;18.10;1.00
18281;DHT22;9266;51.132;17.062;2023-07-13T04:50:07;17.70;99.90
18281;DHT22;9266;51.132;17.062;2023-07-13T04:52:34;17.20;1.00
18281;DHT22;9266;51.132;17.062;2023-07-13T04:55:01;16.90;99.90
18281;DHT22;9266;51.132;17.062;2023-07-13T04:57:28;16.60;99.90
18281;DHT22;9266;51.132;17.062;2023-07-13T04:59:55;16.40;99.90
18281;DHT22;9266;51.132;17.062;2023-07-13T05:02:26;16.30;99.90
18281;DHT22;9266;51.132;17.062;2023-07-13T05:04:54;16.20;99.90
18281;DHT22;9266;51.132;17.062;2023-07-13T05:07:22;16.20;99.90
18281;DHT22;9266;51.132;17.062;2023-07-13T05:09:49;16.00;99.90
18281;DHT22;9266;51.132;17.062;2023-07-13T05:12:16;16.00;99.90
18281;DHT22;9266;51.132;17.062;2023-07-13T05:14:43;16.00;99.90
18281;DHT22;9266;51.132;17.062;2023-07-13T05:17:10;16.00;99.90
18281;DHT22;9266;51.132;17.062;2023-07-13T05:19:37;15.80;99.90
18281;DHT22;9266;51.132;17.062;2023-07-13T05:22:04;15.70;99.90
18281;DHT22;9266;51.132;17.062;2023-07-13T05:24:33;15.70;99.90
18281;DHT22;9266;51.132;17.062;2023-07-13T05:27:00;15.60;99.90
18281;DHT22;9266;51.132;17.062;2023-07-13T05:29:27;15.70;99.90
18281;DHT22;9266;51.132;17.062;2023-07-13T05:31:55;15.70;99.90
18281;DHT22;9266;51.132;17.062;2023-07-13T05:34:22;15.70;99.90
18281;DHT22;9266;51.132;17.062;2023-07-13T05:36:49;15.60;99.90
18281;DHT22;9266;51.132;17.062;2023-07-13T05:39:16;15.60;99.90
18281;DHT22;9266;51.132;17.062;2023-07-13T05:41:45;15.70;99.90
18281;DHT22;9266;51.132;17.062;2023-07-13T05:44:12;15.70;99.90
18281;DHT22;9266;51.132;17.062;2023-07-13T05:46:39;15.70;99.90
18281;DHT22;9266;51.132;17.062;2023-07-13T05:49:06;15.70;99.90
18281;DHT22;9266;51.132;17.062;2023-07-13T05:51:33;15.70;99.90
18281;DHT22;9266;51.132;17.062;2023-07-13T05:54:00;15.70;99.90
18281;DHT22;9266;51.132;17.062;2023-07-13T05:56:27;15.80;99.90
18281;DHT22;9266;51.132;17.062;2023-07-13T05:58:56;15.80;99.90
18281;DHT22;9266;51.132;17.062;2023-07-13T06:01:23;15.90;99.90
18281;DHT22;9266;51.132;17.062;2023-07-13T06:03:50;15.90;99.90
18281;DHT22;9266;51.132;17.062;2023-07-13T06:06:17;16.00;99.90
18281;DHT22;9266;51.132;17.062;2023-07-13T06:08:44;16.00;99.90
18281;DHT22;9266;51.132;17.062;2023-07-13T06:11:14;16.00;99.90
18281;DHT22;9266;51.132;17.062;2023-07-13T06:13:42;16.10;99.90
18281;DHT22;9266;51.132;17.062;2023-07-13T06:16:11;16.20;99.90
18281;DHT22;9266;51.132;17.062;2023-07-13T06:18:38;16.40;99.90
18281;DHT22;9266;51.132;17.062;2023-07-13T06:21:07;16.50;99.90
18281;DHT22;9266;51.132;17.062;2023-07-13T06:23:34;16.80;99.90
18281;DHT22;9266;51.132;17.062;2023-07-13T06:26:01;18.40;99.90
18281;DHT22;9266;51.132;17.062;2023-07-13T06:28:29;17.30;99.90
18281;DHT22;9266;51.132;17.062;2023-07-13T06:30:57;17.80;99.90
18281;DHT22;9266;51.132;17.062;2023-07-13T06:33:25;18.00;99.90
18281;DHT22;9266;51.132;17.062;2023-07-13T06:35:53;18.30;99.90
18281;DHT22;9266;51.132;17.062;2023-07-13T06:38:20;18.40;99.90
18281;DHT22;9266;51.132;17.062;2023-07-13T06:40:47;18.40;99.90
18281;DHT22;9266;51.132;17.062;2023-07-13T06:43:14;18.60;99.90
18281;DHT22;9266;51.132;17.062;2023-07-13T06:45:42;18.50;99.90
18281;DHT22;9266;51.132;17.062;2023-07-13T06:48:11;18.50;99.90
18281;DHT22;9266;51.132;17.062;2023-07-13T06:50:40;18.30;99.90
18281;DHT22;9266;51.132;17.062;2023-07-13T06:53:07;18.10;99.90
18281;DHT22;9266;51.132;17.062;2023-07-13T06:55:34;18.00;99.90
18281;DHT22;9266;51.132;17.062;2023-07-13T06:58:01;17.80;99.90
18281;DHT22;9266;51.132;17.062;2023-07-13T07:00:28;17.90;99.90
18281;DHT22;9266;51.132;17.062;2023-07-13T07:02:55;17.90;99.90
18281;DHT22;9266;51.132;17.062;2023-07-13T07:05:22;17.90;99.90
18281;DHT22;9266;51.132;17.062;2023-07-13T07:07:52;17.80;99.90
18281;DHT22;9266;51.132;17.062;2023-07-13T07:10:19;17.80;99.90
18281;DHT22;9266;51.132;17.062;2023-07-13T07:12:47;17.80;99.90
18281;DHT22;9266;51.132;17.062;2023-07-13T07:15:14;17.80;99.90
18281;DHT22;9266;51.132;17.062;2023-07-13T07:17:41;17.80;99.90
18281;DHT22;9266;51.132;17.062;2023-07-13T07:20:10;17.80;99.90
18281;DHT22;9266;51.132;17.062;2023-07-13T07:22:37;17.80;99.90
18281;DHT22;9266;51.132;17.062;2023-07-13T07:25:06;17.70;99.90
18281;DHT22;9266;51.132;17.062;2023-07-13T07:27:33;17.70;99.90
18281;DHT22;9266;51.132;17.062;2023-07-13T07:30:00;17.70;99.90
18281;DHT22;9266;51.132;17.062;2023-07-13T07:32:29;17.70;99.90
18281;DHT22;9266;51.132;17.062;2023-07-13T07:34:56;17.60;99.90
18281;DHT22;9266;51.132;17.062;2023-07-13T07:37:23;17.60;99.90
18281;DHT22;9266;51.132;17.062;2023-07-13T07:39:50;17.40;99.90
18281;DHT22;9266;51.132;17.062;2023-07-13T07:42:19;17.30;99.90
18281;DHT22;9266;51.132;17.062;2023-07-13T07:44:45;17.20;99.90
18281;DHT22;9266;51.132;17.062;2023-07-13T07:47:12;17.20;99.90
18281;DHT22;9266;51.132;17.062;2023-07-13T07:49:40;17.20;99.90
18281;DHT22;9266;51.132;17.062;2023-07-13T07:52:08;17.20;99.90
18281;DHT22;9266;51.132;17.062;2023-07-13T07:54:35;17.10;99.90
18281;DHT22;9266;51.132;17.062;2023-07-13T07:57:02;17.20;99.90
18281;DHT22;9266;51.132;17.062;2023-07-13T07:59:31;17.20;99.90
18281;DHT22;9266;51.132;17.062;2023-07-13T08:01:57;17.30;99.90
18281;DHT22;9266;51.132;17.062;2023-07-13T08:04:24;17.40;99.90
18281;DHT22;9266;51.132;17.062;2023-07-13T08:06:51;17.60;99.90
18281;DHT22;9266;51.132;17.062;2023-07-13T08:09:18;17.90;99.90
18281;DHT22;9266;51.132;17.062;2023-07-13T08:11:45;18.20;99.90
18281;DHT22;9266;51.132;17.062;2023-07-13T08:14:13;18.70;99.90
18281;DHT22;9266;51.132;17.062;2023-07-13T08:16:41;19.20;99.90
18281;DHT22;9266;51.132;17.062;2023-07-13T08:19:08;19.80;99.90
18281;DHT22;9266;51.132;17.062;2023-07-13T08:21:37;20.20;99.90
18281;DHT22;9266;51.132;17.062;2023-07-13T08:24:04;20.30;99.90
18281;DHT22;9266;51.132;17.062;2023-07-13T08:26:31;20.40;99.90
18281;DHT22;9266;51.132;17.062;2023-07-13T08:28:58;20.60;99.90
18281;DHT22;9266;51.132;17.062;2023-07-13T08:31:25;20.70;99.90
18281;DHT22;9266;51.132;17.062;2023-07-13T08:33:53;19.00;99.90
18281;DHT22;9266;51.132;17.062;2023-07-13T08:36:20;20.70;99.90
18281;DHT22;9266;51.132;17.062;2023-07-13T08:38:47;20.70;99.90
18281;DHT22;9266;51.132;17.062;2023-07-13T08:41:16;20.90;99.90
18281;DHT22;9266;51.132;17.062;2023-07-13T08:43:47;20.90;99.90
18281;DHT22;9266;51.132;17.062;2023-07-13T08:46:19;21.00;99.90
18281;DHT22;9266;51.132;17.062;2023-07-13T08:48:49;21.20;99.90
18281;DHT22;9266;51.132;17.062;2023-07-13T08:51:38;21.10;99.90
18281;DHT22;9266;51.132;17.062;2023-07-13T08:54:15;21.10;99.90
18281;DHT22;9266;51.132;17.062;2023-07-13T08:56:45;21.10;1.00
18281;DHT22;9266;51.132;17.062;2023-07-13T08:59:16;21.10;1.00
18281;DHT22;9266;51.132;17.062;2023-07-13T09:01:56;21.20;1.00
18281;DHT22;9266;51.132;17.062;2023-07-13T09:04:27;21.20;99.90
18281;DHT22;9266;51.132;17.062;2023-07-13T09:07:06;21.30;99.90
18281;DHT22;9266;51.132;17.062;2023-07-13T09:09:46;22.00;1.00
18281;DHT22;9266;51.132;17.062;2023-07-13T09:12:19;22.70;33.70
18281;DHT22;9266;51.132;17.062;2023-07-13T09:14:53;23.30;99.90
18281;DHT22;9266;51.132;17.062;2023-07-13T09:17:23;24.00;99.90
18281;DHT22;9266;51.132;17.062;2023-07-13T09:19:58;24.40;1.00
18281;DHT22;9266;51.132;17.062;2023-07-13T09:22:27;24.70;1.00
18281;DHT22;9266;51.132;17.062;2023-07-13T09:25:02;24.80;1.00
18281;DHT22;9266;51.132;17.062;2023-07-13T09:27:36;24.90;1.00
18281;DHT22;9266;51.132;17.062;2023-07-13T09:30:20;24.80;57.50
18281;DHT22;9266;51.132;17.062;2023-07-13T09:32:51;24.80;1.00
18281;DHT22;9266;51.132;17.062;2023-07-13T09:35:22;24.80;1.00
18281;DHT22;9266;51.132;17.062;2023-07-13T09:37:58;24.60;99.90
18281;DHT22;9266;51.132;17.062;2023-07-13T09:40:37;24.90;1.00
18281;DHT22;9266;51.132;17.062;2023-07-13T09:43:08;24.80;1.00
18281;DHT22;9266;51.132;17.062;2023-07-13T09:45:37;24.70;1.00
18281;DHT22;9266;51.132;17.062;2023-07-13T09:48:06;24.50;1.00
18281;DHT22;9266;51.132;17.062;2023-07-13T09:50:34;24.50;1.00
18281;DHT22;9266;51.132;17.062;2023-07-13T09:53:03;24.40;1.00
18281;DHT22;9266;51.132;17.062;2023-07-13T09:55:31;24.80;1.00
18281;DHT22;9266;51.132;17.062;2023-07-13T09:58:04;24.90;1.00
18281;DHT22;9266;51.132;17.062;2023-07-13T10:00:32;24.90;1.00
18281;DHT22;9266;51.132;17.062;2023-07-13T10:03:04;24.60;1.00
18281;DHT22;9266;51.132;17.062;2023-07-13T10:05:39;24.50;99.90
18281;DHT22;9266;51.132;17.062;2023-07-13T10:08:16;24.70;1.00
18281;DHT22;9266;51.132;17.062;2023-07-13T10:10:44;24.60;1.00
18281;DHT22;9266;51.132;17.062;2023-07-13T10:13:26;24.10;1.00
18281;DHT22;9266;51.132;17.062;2023-07-13T10:15:54;23.60;99.90
18281;DHT22;9266;51.132;17.062;2023-07-13T10:18:22;23.40;1.00
18281;DHT22;9266;51.132;17.062;2023-07-13T10:20:54;23.80;1.00
18281;DHT22;9266;51.132;17.062;2023-07-13T10:23:33;24.20;1.00
18281;DHT22;9266;51.132;17.062;2023-07-13T10:26:01;24.40;1.00
18281;DHT22;9266;51.132;17.062;2023-07-13T10:28:31;24.40;99.90
18281;DHT22;9266;51.132;17.062;2023-07-13T10:31:00;24.80;99.90
18281;DHT22;9266;51.132;17.062;2023-07-13T10:33:28;25.50;99.90
18281;DHT22;9266;51.132;17.062;2023-07-13T10:36:13;25.90;99.90
18281;DHT22;9266;51.132;17.062;2023-07-13T10:38:43;25.80;1.00
18281;DHT22;9266;51.132;17.062;2023-07-13T10:41:15;25.90;54.00
18281;DHT22;9266;51.132;17.062;2023-07-13T10:43:45;25.90;99.90
18281;DHT22;9266;51.132;17.062;2023-07-13T10:46:17;26.40;99.90
18281;DHT22;9266;51.132;17.062;2023-07-13T10:48:48;26.40;34.70
18281;DHT22;9266;51.132;17.062;2023-07-13T10:51:18;26.10;1.00
18281;DHT22;9266;51.132;17.062;2023-07-13T10:54:14;25.80;90.20
18281;DHT22;9266;51.132;17.062;2023-07-13T10:56:43;26.40;1.00
18281;DHT22;9266;51.132;17.062;2023-07-13T10:59:14;26.80;99.90
18281;DHT22;9266;51.132;17.062;2023-07-13T11:01:53;26.90;99.90
18281;DHT22;9266;51.132;17.062;2023-07-13T11:04:21;26.50;99.90
18281;DHT22;9266;51.132;17.062;2023-07-13T11:06:53;26.40;99.90
18281;DHT22;9266;51.132;17.062;2023-07-13T11:09:40;26.60;99.90
18281;DHT22;9266;51.132;17.062;2023-07-13T11:12:27;26.80;99.90
18281;DHT22;9266;51.132;17.062;2023-07-13T11:15:09;27.10;99.90
18281;DHT22;9266;51.132;17.062;2023-07-13T11:17:47;27.20;99.90
18281;DHT22;9266;51.132;17.062;2023-07-13T11:20:24;26.70;15.00
18281;DHT22;9266;51.132;17.062;2023-07-13T11:23:15;26.30;50.40
18281;DHT22;9266;51.132;17.062;2023-07-13T11:25:45;26.30;75.40
18281;DHT22;9266;51.132;17.062;2023-07-13T11:28:24;25.80;36.80
18281;DHT22;9266;51.132;17.062;2023-07-13T11:31:12;26.00;61.80
18281;DHT22;9266;51.132;17.062;2023-07-13T11:33:53;25.10;70.80
18281;DHT22;9266;51.132;17.062;2023-07-13T11:36:23;25.70;99.90
18281;DHT22;9266;51.132;17.062;2023-07-13T11:38:59;24.80;99.90
18281;DHT22;9266;51.132;17.062;2023-07-13T11:41:30;25.20;99.90
18281;DHT22;9266;51.132;17.062;2023-07-13T11:44:06;25.80;99.90
18281;DHT22;9266;51.132;17.062;2023-07-13T11:46:33;26.00;99.90
18281;DHT22;9266;51.132;17.062;2023-07-13T11:49:00;25.60;99.90
18281;DHT22;9266;51.132;17.062;2023-07-13T11:51:30;25.50;99.90
18281;DHT22;9266;51.132;17.062;2023-07-13T11:54:06;25.60;99.90
18281;DHT22;9266;51.132;17.062;2023-07-13T11:56:36;25.80;95.80
18281;DHT22;9266;51.132;17.062;2023-07-13T11:59:06;25.30;94.10
18281;DHT22;9266;51.132;17.062;2023-07-13T12:01:34;25.50;99.90
18281;DHT22;9266;51.132;17.062;2023-07-13T12:04:04;26.10;99.90
18281;DHT22;9266;51.132;17.062;2023-07-13T12:06:33;26.60;97.00
18281;DHT22;9266;51.132;17.062;2023-07-13T12:09:08;26.20;46.90
18281;DHT22;9266;51.132;17.062;2023-07-13T12:11:41;26.80;27.50
18281;DHT22;9266;51.132;17.062;2023-07-13T12:14:13;26.70;30.20
18281;DHT22;9266;51.132;17.062;2023-07-13T12:16:41;26.60;14.50
18281;DHT22;9266;51.132;17.062;2023-07-13T12:19:17;26.10;32.00
18281;DHT22;9266;51.132;17.062;2023-07-13T12:21:45;26.00;1.00
18281;DHT22;9266;51.132;17.062;2023-07-13T12:24:16;25.80;1.00
18281;DHT22;9266;51.132;17.062;2023-07-13T12:26:44;25.50;1.00
18281;DHT22;9266;51.132;17.062;2023-07-13T12:29:16;25.50;1.00
18281;DHT22;9266;51.132;17.062;2023-07-13T12:31:45;26.10;1.00
18281;DHT22;9266;51.132;17.062;2023-07-13T12:34:14;26.10;1.00
18281;DHT22;9266;51.132;17.062;2023-07-13T12:36:47;26.20;1.00
18281;DHT22;9266;51.132;17.062;2023-07-13T12:39:18;26.20;1.00
18281;DHT22;9266;51.132;17.062;2023-07-13T12:41:47;26.30;1.00
18281;DHT22;9266;51.132;17.062;2023-07-13T12:44:18;25.90;1.00
18281;DHT22;9266;51.132;17.062;2023-07-13T12:46:57;26.20;1.00
18281;DHT22;9266;51.132;17.062;2023-07-13T12:49:28;26.60;1.00
18281;DHT22;9266;51.132;17.062;2023-07-13T12:51:57;26.90;1.00
18281;DHT22;9266;51.132;17.062;2023-07-13T12:54:25;25.50;1.00
18281;DHT22;9266;51.132;17.062;2023-07-13T12:56:54;27.10;1.00
18281;DHT22;9266;51.132;17.062;2023-07-13T12:59:26;27.10;1.00
18281;DHT22;9266;51.132;17.062;2023-07-13T13:01:56;25.80;1.00
18281;DHT22;9266;51.132;17.062;2023-07-13T13:04:23;25.00;1.00
18281;DHT22;9266;51.132;17.062;2023-07-13T13:07:01;26.30;1.00
18281;DHT22;9266;51.132;17.062;2023-07-13T13:09:28;26.30;1.00
18281;DHT22;9266;51.132;17.062;2023-07-13T13:11:58;26.40;1.00
18281;DHT22;9266;51.132;17.062;2023-07-13T13:14:25;26.50;1.00
18281;DHT22;9266;51.132;17.062;2023-07-13T13:16:52;26.70;1.00
18281;DHT22;9266;51.132;17.062;2023-07-13T13:19:22;26.50;1.00
18281;DHT22;9266;51.132;17.062;2023-07-13T13:21:50;26.20;1.00
18281;DHT22;9266;51.132;17.062;2023-07-13T13:24:19;26.30;1.00
18281;DHT22;9266;51.132;17.062;2023-07-13T13:26:47;26.30;1.00
18281;DHT22;9266;51.132;17.062;2023-07-13T13:29:18;26.30;1.00
18281;DHT22;9266;51.132;17.062;2023-07-13T13:31:46;26.00;1.00
18281;DHT22;9266;51.132;17.062;2023-07-13T13:34:14;26.30;1.00
18281;DHT22;9266;51.132;17.062;2023-07-13T13:36:42;26.30;1.00
18281;DHT22;9266;51.132;17.062;2023-07-13T13:39:19;26.00;1.00
18281;DHT22;9266;51.132;17.062;2023-07-13T13:41:47;26.10;1.00
18281;DHT22;9266;51.132;17.062;2023-07-13T13:44:17;26.20;1.00
18281;DHT22;9266;51.132;17.062;2023-07-13T13:46:45;26.30;1.00
18281;DHT22;9266;51.132;17.062;2023-07-13T13:49:15;26.30;1.00
18281;DHT22;9266;51.132;17.062;2023-07-13T13:51:43;26.40;1.00
18281;DHT22;9266;51.132;17.062;2023-07-13T13:54:12;26.20;1.00
18281;DHT22;9266;51.132;17.062;2023-07-13T13:56:42;26.30;1.00
18281;DHT22;9266;51.132;17.062;2023-07-13T13:59:09;26.60;1.00
18281;DHT22;9266;51.132;17.062;2023-07-13T14:01:38;26.70;1.00
18281;DHT22;9266;51.132;17.062;2023-07-13T14:04:06;26.40;1.00
18281;DHT22;9266;51.132;17.062;2023-07-13T14:06:34;25.80;1.00
18281;DHT22;9266;51.132;17.062;2023-07-13T14:09:01;25.90;1.00
18281;DHT22;9266;51.132;17.062;2023-07-13T14:11:30;26.20;1.00
18281;DHT22;9266;51.132;17.062;2023-07-13T14:13:59;26.50;1.00
18281;DHT22;9266;51.132;17.062;2023-07-13T14:16:30;26.70;99.90
18281;DHT22;9266;51.132;17.062;2023-07-13T14:18:59;26.80;99.90
18281;DHT22;9266;51.132;17.062;2023-07-13T14:21:28;26.80;99.90
18281;DHT22;9266;51.132;17.062;2023-07-13T14:23:55;26.80;99.90
18281;DHT22;9266;51.132;17.062;2023-07-13T14:26:24;26.80;99.90
18281;DHT22;9266;51.132;17.062;2023-07-13T14:28:53;27.00;99.90
18281;DHT22;9266;51.132;17.062;2023-07-13T14:31:21;27.00;99.90
18281;DHT22;9266;51.132;17.062;2023-07-13T14:33:49;27.00;99.90
18281;DHT22;9266;51.132;17.062;2023-07-13T14:36:27;26.80;99.90
18281;DHT22;9266;51.132;17.062;2023-07-13T14:38:55;27.30;99.90
18281;DHT22;9266;51.132;17.062;2023-07-13T14:41:22;27.60;99.90
18281;DHT22;9266;51.132;17.062;2023-07-13T14:43:49;27.70;99.90
18281;DHT22;9266;51.132;17.062;2023-07-13T14:46:26;27.70;99.90
18281;DHT22;9266;51.132;17.062;2023-07-13T14:48:59;27.40;99.90
18281;DHT22;9266;51.132;17.062;2023-07-13T14:51:31;27.30;99.90
18281;DHT22;9266;51.132;17.062;2023-07-13T14:54:03;27.60;99.90
18281;DHT22;9266;51.132;17.062;2023-07-13T14:56:31;27.10;99.90
18281;DHT22;9266;51.132;17.062;2023-07-13T14:58:58;26.70;99.90
18281;DHT22;9266;51.132;17.062;2023-07-13T15:01:25;26.80;99.90
18281;DHT22;9266;51.132;17.062;2023-07-13T15:03:53;26.90;99.90
18281;DHT22;9266;51.132;17.062;2023-07-13T15:06:20;27.10;99.90
18281;DHT22;9266;51.132;17.062;2023-07-13T15:08:48;27.40;99.90
18281;DHT22;9266;51.132;17.062;2023-07-13T15:11:16;26.80;99.90
18281;DHT22;9266;51.132;17.062;2023-07-13T15:13:43;26.60;99.90
18281;DHT22;9266;51.132;17.062;2023-07-13T15:16:16;26.50;99.90
18281;DHT22;9266;51.132;17.062;2023-07-13T15:18:44;26.40;99.90
18281;DHT22;9266;51.132;17.062;2023-07-13T15:21:20;26.20;99.90
18281;DHT22;9266;51.132;17.062;2023-07-13T15:23:49;26.30;99.90
18281;DHT22;9266;51.132;17.062;2023-07-13T15:26:17;26.50;99.90
18281;DHT22;9266;51.132;17.062;2023-07-13T15:28:45;26.60;99.90
18281;DHT22;9266;51.132;17.062;2023-07-13T15:31:19;26.40;99.90
18281;DHT22;9266;51.132;17.062;2023-07-13T15:33:48;26.20;99.90
18281;DHT22;9266;51.132;17.062;2023-07-13T15:36:16;26.20;99.90
18281;DHT22;9266;51.132;17.062;2023-07-13T15:38:44;26.20;99.90
18281;DHT22;9266;51.132;17.062;2023-07-13T15:41:18;25.90;99.90
18281;DHT22;9266;51.132;17.062;2023-07-13T15:43:47;25.40;99.90
18281;DHT22;9266;51.132;17.062;2023-07-13T15:46:14;25.20;99.90
18281;DHT22;9266;51.132;17.062;2023-07-13T15:48:41;25.10;99.90
18281;DHT22;9266;51.132;17.062;2023-07-13T15:51:22;25.20;99.90